createdAt,value
2022-07-25T00:01:11.415Z,23.34
2022-07-25T00:06:13.511Z,23.31
2022-07-25T00:11:19.410Z,23.21
2022-07-25T00:16:21.296Z,23.22
2022-07-25T00:21:23.074Z,23.19
2022-07-25T00:26:24.594Z,23.14
2022-07-25T00:31:26.288Z,23.04
2022-07-25T00:36:27.921Z,23.05
2022-07-25T00:41:29.485Z,23.03
2022-07-25T00:46:32.238Z,23.06
2022-07-25T00:51:34.868Z,23.02
2022-07-25T00:56:37.090Z,22.99
2022-07-25T01:01:39.378Z,23.00
2022-07-25T01:06:41.425Z,22.96
2022-07-25T01:11:43.087Z,22.90
2022-07-25T01:16:44.669Z,22.95
2022-07-25T01:21:46.293Z,22.88
2022-07-25T01:26:47.911Z,22.81
2022-07-25T01:31:49.530Z,22.78
2022-07-25T01:36:51.132Z,22.75
2022-07-25T01:41:52.714Z,22.71
2022-07-25T01:47:19.833Z,22.77
2022-07-25T01:52:21.504Z,22.69
2022-07-25T01:57:26.625Z,22.77
2022-07-25T02:02:35.850Z,22.72
2022-07-25T02:07:37.909Z,22.67
2022-07-25T02:12:39.416Z,22.55
2022-07-25T02:17:41.162Z,22.55
2022-07-25T02:22:42.709Z,22.53
2022-07-25T02:27:44.246Z,22.56
2022-07-25T02:32:45.838Z,22.51
2022-07-25T02:37:47.661Z,22.47
2022-07-25T02:42:49.220Z,22.41
2022-07-25T02:47:51.091Z,22.40
2022-07-25T02:52:52.664Z,22.40
2022-07-25T02:57:54.299Z,22.30
2022-07-25T03:02:56.423Z,22.24
2022-07-25T03:07:57.995Z,22.19
2022-07-25T03:12:59.723Z,21.97
2022-07-25T03:18:01.265Z,21.95
2022-07-25T03:23:03.100Z,21.96
2022-07-25T03:28:04.868Z,21.95
2022-07-25T03:33:06.472Z,22.00
2022-07-25T03:38:08.173Z,22.01
2022-07-25T03:43:09.854Z,21.93
2022-07-25T03:48:12.125Z,21.89
2022-07-25T03:53:13.790Z,21.85
2022-07-25T03:58:15.349Z,21.76
2022-07-25T04:03:16.879Z,21.82
2022-07-25T04:08:18.402Z,21.76
2022-07-25T04:13:20.101Z,21.79
2022-07-25T04:18:23.751Z,21.77
2022-07-25T04:23:31.273Z,21.75
2022-07-25T04:28:32.841Z,21.70
2022-07-25T04:33:37.483Z,21.67
2022-07-25T04:38:39.028Z,21.61
2022-07-25T04:43:44.853Z,21.65
2022-07-25T04:48:48.295Z,21.69
2022-07-25T04:53:49.928Z,21.65
2022-07-25T04:58:51.575Z,21.64
2022-07-25T05:03:53.182Z,21.75
2022-07-25T05:08:55.469Z,21.72
2022-07-25T05:13:57.178Z,21.65
2022-07-25T05:18:58.798Z,21.73
2022-07-25T05:24:00.343Z,21.75
2022-07-25T05:29:01.888Z,21.65
2022-07-25T05:34:04.055Z,21.70
2022-07-25T05:39:05.960Z,21.72
2022-07-25T05:44:07.769Z,21.69
2022-07-25T05:49:09.893Z,21.54
2022-07-25T05:54:11.617Z,21.55
2022-07-25T05:59:13.359Z,21.49
2022-07-25T06:04:14.893Z,21.24
2022-07-25T06:09:21.362Z,21.15
2022-07-25T06:14:23.290Z,21.18
2022-07-25T06:19:25.262Z,21.16
2022-07-25T06:24:26.906Z,21.14
2022-07-25T06:29:28.460Z,21.06
2022-07-25T06:34:30.290Z,20.84
2022-07-25T06:39:31.982Z,20.92
2022-07-25T06:44:35.384Z,20.96
2022-07-25T06:49:37.029Z,21.03
2022-07-25T06:54:38.817Z,21.07
2022-07-25T06:59:40.357Z,20.97
2022-07-25T07:04:42.193Z,20.90
2022-07-25T07:09:44.303Z,20.74
2022-07-25T07:14:45.881Z,20.85
2022-07-25T07:19:47.493Z,20.77
2022-07-25T07:24:49.238Z,20.81
2022-07-25T07:29:51.878Z,20.93
2022-07-25T07:34:54.552Z,20.93
2022-07-25T07:39:56.138Z,20.91
2022-07-25T07:44:57.772Z,20.77
2022-07-25T07:49:59.287Z,20.73
2022-07-25T07:55:19.448Z,20.87
2022-07-25T08:00:21.540Z,20.62
2022-07-25T08:05:32.973Z,20.74
2022-07-25T08:10:37.029Z,21.03
2022-07-25T08:15:40.312Z,21.54
2022-07-25T08:20:42.014Z,21.86
2022-07-25T08:25:48.296Z,21.98
2022-07-25T08:30:50.004Z,21.71
2022-07-25T08:35:54.645Z,21.56
2022-07-25T08:40:57.758Z,21.40
2022-07-25T08:46:02.268Z,21.26
2022-07-25T08:51:04.648Z,21.40
2022-07-25T08:56:12.581Z,21.31
2022-07-25T09:01:17.946Z,21.21
2022-07-25T09:06:22.150Z,20.93
2022-07-25T09:11:41.995Z,21.20
2022-07-25T09:16:45.374Z,21.35
2022-07-25T09:22:10.584Z,21.28
2022-07-25T09:27:13.095Z,21.14
2022-07-25T09:32:20.619Z,21.03
2022-07-25T09:37:26.585Z,21.12
2022-07-25T09:42:33.497Z,21.03
2022-07-25T09:47:38.237Z,21.17
2022-07-25T09:52:40.390Z,21.39
2022-07-25T09:57:47.316Z,21.77
2022-07-25T10:02:55.167Z,21.40
2022-07-25T10:07:57.966Z,21.31
2022-07-25T10:13:10.201Z,21.39
2022-07-25T10:18:13.906Z,21.28
2022-07-25T10:23:28.790Z,21.07
2022-07-25T10:28:52.040Z,21.04
2022-07-25T10:34:36.242Z,20.92
2022-07-25T10:39:50.377Z,21.04
2022-07-25T10:45:18.580Z,21.05
2022-07-25T10:50:53.611Z,21.10
2022-07-25T10:56:05.761Z,20.97
2022-07-25T11:01:08.493Z,21.64
2022-07-25T11:06:10.421Z,21.39
2022-07-25T11:11:12.323Z,21.92
2022-07-25T11:16:14.205Z,22.04
2022-07-25T11:21:15.747Z,21.96
2022-07-25T11:26:18.141Z,21.83
2022-07-25T11:31:22.995Z,21.46
2022-07-25T11:36:24.893Z,21.46
2022-07-25T11:41:33.200Z,21.39
2022-07-25T11:46:42.727Z,21.59
2022-07-25T11:51:47.309Z,21.52
2022-07-25T11:56:49.017Z,21.33
2022-07-25T12:01:51.257Z,21.60
2022-07-25T12:07:04.283Z,21.80
2022-07-25T12:12:07.377Z,21.55
2022-07-25T12:17:09.054Z,21.97
2022-07-25T12:22:10.777Z,21.62
2022-07-25T12:27:16.041Z,21.63
2022-07-25T12:32:17.694Z,21.55
2022-07-25T12:37:21.679Z,21.41
2022-07-25T12:42:23.921Z,21.74
2022-07-25T12:47:27.309Z,22.04
2022-07-25T12:52:29.132Z,22.00
2022-07-25T12:57:30.845Z,22.05
2022-07-25T13:02:34.901Z,22.04
2022-07-25T13:07:38.020Z,22.39
2022-07-25T13:12:39.859Z,22.24
2022-07-25T13:17:42.025Z,22.38
2022-07-25T13:22:44.803Z,22.16
2022-07-25T13:27:48.580Z,22.11
2022-07-25T13:32:50.327Z,22.48
2022-07-25T13:37:52.247Z,22.51
2022-07-25T13:42:54.004Z,22.56
2022-07-25T13:48:26.785Z,22.78
2022-07-25T13:53:19.321Z,22.88
2022-07-25T13:58:21.101Z,22.85
2022-07-25T14:03:30.238Z,22.70
2022-07-25T14:08:32.026Z,22.32
2022-07-25T14:13:34.065Z,21.95
2022-07-25T14:18:35.932Z,22.19
2022-07-25T14:23:38.622Z,22.13
2022-07-25T14:28:40.343Z,21.95
2022-07-25T14:33:43.349Z,22.17
2022-07-25T14:38:47.362Z,22.50
2022-07-25T14:43:49.680Z,22.62
2022-07-25T14:48:52.773Z,22.83
2022-07-25T14:53:54.499Z,23.02
2022-07-25T14:58:56.196Z,22.58
2022-07-25T15:04:22.128Z,22.18
2022-07-25T15:09:24.051Z,22.52
2022-07-25T15:14:25.813Z,22.50
2022-07-25T15:19:28.857Z,22.11
2022-07-25T15:24:50.229Z,21.91
2022-07-25T15:29:57.059Z,21.68
2022-07-25T15:34:59.392Z,21.35
2022-07-25T15:40:01.315Z,21.68
2022-07-25T15:45:31.443Z,21.36
2022-07-25T15:50:25.052Z,21.60
2022-07-25T15:55:27.682Z,21.39
2022-07-25T16:00:30.417Z,21.21
2022-07-25T16:05:32.207Z,21.27
2022-07-25T16:10:34.389Z,20.86
2022-07-25T16:15:53.175Z,20.89
2022-07-25T16:20:55.012Z,20.66
2022-07-25T16:25:56.759Z,20.78
2022-07-25T16:31:03.625Z,20.70
2022-07-25T16:36:05.623Z,20.76
2022-07-25T16:41:07.406Z,20.76
2022-07-25T16:46:11.769Z,20.60
2022-07-25T16:51:13.953Z,20.60
2022-07-25T16:56:16.637Z,20.53
2022-07-25T17:01:18.936Z,20.51
2022-07-25T17:06:20.621Z,20.48
2022-07-25T17:11:22.632Z,20.12
2022-07-25T17:16:24.545Z,20.02
2022-07-25T17:21:26.287Z,20.27
2022-07-25T17:26:59.235Z,20.34
2022-07-25T17:32:02.921Z,20.21
2022-07-25T17:37:06.987Z,20.21
2022-07-25T17:42:08.622Z,20.36
2022-07-25T17:47:11.043Z,20.22
2022-07-25T17:52:12.911Z,20.12
2022-07-25T17:57:14.519Z,20.25
2022-07-25T18:02:16.370Z,20.16
2022-07-25T18:07:19.492Z,20.07
2022-07-25T18:12:23.771Z,20.07
2022-07-25T18:17:28.672Z,19.99
2022-07-25T18:22:30.805Z,20.04
2022-07-25T18:27:34.813Z,20.10
2022-07-25T18:32:38.329Z,20.30
2022-07-25T18:37:40.080Z,20.07
2022-07-25T18:42:42.747Z,20.09
2022-07-25T18:47:44.980Z,19.93
2022-07-25T18:52:46.704Z,19.81
2022-07-25T18:57:49.694Z,19.83
2022-07-25T19:02:51.540Z,19.84
2022-07-25T19:07:53.356Z,19.83
2022-07-25T19:12:55.115Z,19.81
2022-07-25T19:17:57.021Z,19.73
2022-07-25T19:23:01.864Z,19.67
2022-07-25T19:28:04.595Z,19.71
2022-07-25T19:33:06.294Z,19.85
2022-07-25T19:38:08.169Z,19.74
2022-07-25T19:43:12.863Z,19.64
2022-07-25T19:48:14.626Z,19.48
2022-07-25T19:53:16.315Z,19.46
2022-07-25T19:58:18.360Z,19.54
2022-07-25T20:03:23.353Z,19.32
2022-07-25T20:08:25.308Z,19.41
2022-07-25T20:13:27.939Z,19.39
2022-07-25T20:18:30.249Z,19.37
2022-07-25T20:24:35.480Z,19.46
2022-07-25T20:29:41.452Z,19.39
2022-07-25T20:34:45.893Z,19.46
2022-07-25T20:39:48.319Z,19.47
2022-07-25T20:44:50.658Z,19.44
2022-07-25T20:49:52.727Z,19.48
2022-07-25T20:54:54.421Z,19.47
2022-07-25T20:59:56.104Z,19.58
2022-07-25T21:04:57.836Z,19.51
2022-07-25T21:09:59.475Z,19.48
2022-07-25T21:15:01.367Z,19.54
2022-07-25T21:20:04.082Z,19.58
2022-07-25T21:25:09.225Z,19.55
2022-07-25T21:30:11.920Z,19.56
2022-07-25T21:35:22.209Z,19.51
2022-07-25T21:40:28.483Z,19.56
2022-07-25T21:45:31.772Z,19.59
2022-07-25T21:50:42.203Z,19.55
2022-07-25T21:55:45.691Z,19.60
2022-07-25T22:00:47.552Z,19.59
2022-07-25T22:05:49.321Z,19.52
2022-07-25T22:10:51.196Z,19.57
2022-07-25T22:15:53.840Z,19.55
2022-07-25T22:20:55.815Z,19.50
2022-07-25T22:25:57.519Z,19.51
2022-07-25T22:30:59.287Z,19.50
2022-07-25T22:36:01.507Z,19.58
2022-07-25T22:41:03.456Z,19.57
2022-07-25T22:46:05.207Z,19.52
2022-07-25T22:51:06.906Z,19.51
2022-07-25T22:56:08.801Z,19.55
2022-07-25T23:01:11.038Z,19.45
2022-07-25T23:06:13.158Z,19.53
2022-07-25T23:11:14.965Z,19.52
2022-07-25T23:16:16.640Z,19.51
2022-07-25T23:21:18.411Z,19.48
2022-07-25T23:26:20.072Z,19.45
2022-07-25T23:31:22.456Z,19.39
2022-07-25T23:36:26.321Z,19.46
2022-07-25T23:41:27.980Z,19.57
2022-07-25T23:46:33.652Z,19.65
2022-07-25T23:51:37.075Z,19.69
2022-07-25T23:56:38.877Z,19.82
